Time;durP1;ratioP1;P1;durP2;ratioP2;P2;SDS_P1;SDS_P2;PMS_P1;PMS_P2;Temp;Humidity;BMP_temperature;BMP_pressure;BME280_temperature;BME280_humidity;BME280_pressure;Samples;Min_cycle;Max_cycle;Signal;HPM_P1;HPM_P2
2022/03/27 00:00:19;;;;;;;12.60;6.50;;;;;;;18.59;40.72;101705.63;5148297;27;20118;-44
2022/03/27 00:02:45;;;;;;;10.88;6.07;;;;;;;18.60;40.80;101701.19;5159282;27;20643;-41
2022/03/27 00:05:11;;;;;;;8.35;6.50;;;;;;;18.59;40.76;101689.81;5148131;27;20068;-46
2022/03/27 00:07:37;;;;;;;9.82;5.82;;;;;;;18.60;40.87;101695.91;5151744;27;20553;-43
2022/03/27 00:10:03;;;;;;;8.93;6.70;;;;;;;18.60;40.64;101694.13;5168782;27;20026;-41
2022/03/27 00:12:29;;;;;;;8.50;6.50;;;;;;;18.59;40.44;101695.09;5157489;27;20029;-41
2022/03/27 00:14:54;;;;;;;12.88;6.25;;;;;;;18.58;40.54;101694.25;5149116;27;20027;-43
2022/03/27 00:17:20;;;;;;;8.90;6.07;;;;;;;18.58;40.43;101690.78;5157508;27;20376;-41
2022/03/27 00:19:45;;;;;;;12.25;7.00;;;;;;;18.58;40.60;101693.44;5172263;27;20430;-43
2022/03/27 00:22:11;;;;;;;8.95;6.35;;;;;;;18.58;40.30;101701.34;5171570;27;20419;-42
2022/03/27 00:24:36;;;;;;;9.25;6.07;;;;;;;18.59;40.24;101689.81;5142952;27;20094;-44
2022/03/27 00:27:02;;;;;;;7.07;5.20;;;;;;;18.60;40.12;101695.91;5151475;27;20035;-42
2022/03/27 00:29:27;;;;;;;10.35;6.43;;;;;;;18.60;40.09;101690.63;5152041;27;20433;-48
2022/03/27 00:31:53;;;;;;;12.27;6.32;;;;;;;18.62;39.96;101696.59;5153818;27;20183;-44
2022/03/27 00:34:21;;;;;;;10.65;6.20;;;;;;;18.61;40.04;101695.78;5152880;27;20243;-46
2022/03/27 00:36:47;;;;;;;7.10;5.88;;;;;;;18.62;39.85;101697.41;5156070;27;20512;-42
2022/03/27 00:39:12;;;;;;;8.25;5.72;;;;;;;18.64;39.85;101691.97;5151431;27;20076;-41
2022/03/27 00:41:38;;;;;;;7.10;5.93;;;;;;;18.64;39.70;101700.72;5156719;27;20046;-43
2022/03/27 00:44:04;;;;;;;8.13;6.03;;;;;;;18.64;39.67;101698.06;5135763;27;20026;-48
2022/03/27 00:46:29;;;;;;;12.75;6.38;;;;;;;18.64;39.66;101695.44;5135279;27;20049;-43
2022/03/27 00:48:55;;;;;;;8.40;6.55;;;;;;;18.65;39.65;101697.09;5159668;27;20575;-43
2022/03/27 00:51:20;;;;;;;7.88;5.40;;;;;;;18.65;39.52;101697.09;5161197;27;20481;-41
2022/03/27 00:53:46;;;;;;;7.97;6.65;;;;;;;18.65;39.36;101694.44;5155899;27;20083;-44
2022/03/27 00:56:11;;;;;;;8.43;6.40;;;;;;;18.65;39.38;101702.38;5153880;27;20027;-43
2022/03/27 00:58:37;;;;;;;9.90;6.25;;;;;;;18.65;39.38;101698.91;5151768;27;20019;-42
2022/03/27 01:01:15;;;;;;;7.30;6.20;;;;;;;18.62;39.28;101701.88;5153907;27;20411;-41
2022/03/27 01:03:41;;;;;;;10.90;6.78;;;;;;;18.63;39.22;101700.88;5148996;27;20042;-43
2022/03/27 01:06:18;;;;;;;8.77;6.63;;;;;;;18.61;38.96;101701.06;5153676;27;20548;-42
2022/03/27 01:11:27;;;;;;;8.80;6.53;;;;;;;18.62;39.10;101705.34;5151050;27;20095;-43
2022/03/27 01:13:56;;;;;;;9.38;6.57;;;;;;;18.61;38.95;101695.78;5151575;27;20026;-40
2022/03/27 01:16:36;;;;;;;9.57;6.32;;;;;;;18.60;38.85;101693.28;5158315;27;20033;-41
2022/03/27 01:19:03;;;;;;;7.35;5.88;;;;;;;18.62;38.92;101692.16;5158293;27;20724;-44
2022/03/27 01:21:28;;;;;;;9.27;6.75;;;;;;;18.60;38.68;101694.13;5167566;27;20034;-42
2022/03/27 01:23:55;;;;;;;13.52;6.50;;;;;;;18.60;38.79;101691.47;5171965;27;20095;-40
2022/03/27 01:26:22;;;;;;;9.32;7.05;;;;;;;18.60;38.71;101696.75;5153330;27;20087;-42
2022/03/27 01:28:47;;;;;;;8.75;6.45;;;;;;;18.61;38.82;101693.13;5143581;27;20035;-42
2022/03/27 01:31:13;;;;;;;6.90;5.95;;;;;;;18.60;38.63;101691.47;5162375;27;20351;-44
2022/03/27 01:33:38;;;;;;;7.80;6.00;;;;;;;18.60;38.60;101690.63;5159890;27;20170;-42
2022/03/27 01:36:04;;;;;;;6.68;6.00;;;;;;;18.60;38.59;101688.84;5161422;27;20042;-42
2022/03/27 01:38:30;;;;;;;9.57;6.70;;;;;;;18.60;38.58;101683.56;5166642;27;20036;-43
2022/03/27 01:40:55;;;;;;;7.20;5.90;;;;;;;18.60;38.41;101694.13;5171149;27;20039;-41
2022/03/27 01:43:20;;;;;;;8.48;6.43;;;;;;;18.58;38.42;101683.69;5164847;27;20033;-44
2022/03/27 01:45:46;;;;;;;7.22;5.93;;;;;;;18.60;38.42;101695.91;5161169;27;20048;-43
2022/03/27 01:48:11;;;;;;;7.03;6.32;;;;;;;18.59;38.42;101689.81;5163904;27;20032;-42
2022/03/27 01:50:37;;;;;;;8.10;6.40;;;;;;;18.59;38.41;101689.81;5163489;27;20031;-42
2022/03/27 01:53:02;;;;;;;11.35;6.63;;;;;;;18.59;38.39;101692.44;5165909;27;20019;-43
2022/03/27 01:55:28;;;;;;;7.57;6.30;;;;;;;18.58;38.29;101691.63;5148237;27;20090;-43
2022/03/27 01:57:53;;;;;;;9.68;6.82;;;;;;;18.58;38.30;101688.16;5150224;27;20418;-41
2022/03/27 02:00:19;;;;;;;7.72;6.20;;;;;;;18.58;38.29;101688.16;5158472;27;20030;-43
2022/03/27 02:02:45;;;;;;;9.35;6.97;;;;;;;18.58;38.27;101693.44;5164445;27;20344;-42
2022/03/27 02:05:11;;;;;;;8.43;6.50;;;;;;;18.57;38.26;101697.06;5150043;27;20079;-42
2022/03/27 02:07:42;;;;;;;8.38;6.78;;;;;;;18.56;38.36;101696.25;5152080;27;20715;-41
2022/03/27 02:12:43;;;;;;;7.70;6.20;;;;;;;18.55;38.26;101699.88;5233400;22;20056;-41
2022/03/27 02:15:09;;;;;;;6.80;6.13;;;;;;;18.56;38.12;101701.50;5088304;28;20039;-41
2022/03/27 02:17:38;;;;;;;9.15;6.63;;;;;;;18.55;38.10;101704.31;5088438;28;20040;-41
2022/03/27 02:20:06;;;;;;;9.13;7.15;;;;;;;18.57;38.14;101704.97;5088046;28;20486;-42
2022/03/27 02:22:31;;;;;;;8.82;6.53;;;;;;;18.55;38.12;101702.50;5088107;28;20020;-45
2022/03/27 02:24:57;;;;;;;7.47;6.68;;;;;;;18.54;38.19;101703.50;5088294;28;20028;-42
2022/03/27 02:27:22;;;;;;;7.50;6.38;;;;;;;18.54;38.20;101698.22;5088213;28;20074;-43
2022/03/27 02:29:47;;;;;;;10.25;6.72;;;;;;;18.55;38.18;101704.31;5088464;28;20106;-41
2022/03/27 02:32:14;;;;;;;8.13;6.32;;;;;;;18.54;38.12;101708.78;5087999;28;20475;-41
2022/03/27 02:34:40;;;;;;;8.80;6.47;;;;;;;18.53;38.18;101699.22;5069668;28;20032;-41
2022/03/27 02:37:06;;;;;;;8.23;6.70;;;;;;;18.53;38.18;101701.03;5088076;28;20024;-42
2022/03/27 02:39:32;;;;;;;8.80;6.03;;;;;;;18.53;38.09;101698.38;5087846;28;20035;-40
2022/03/27 02:41:58;;;;;;;7.47;6.13;;;;;;;18.53;38.19;101699.22;5087481;28;20512;-42
2022/03/27 02:44:23;;;;;;;8.35;5.82;;;;;;;18.54;37.98;101700.03;5087254;28;20197;-45
2022/03/27 02:46:50;;;;;;;6.80;5.78;;;;;;;18.55;38.01;101699.03;5087440;28;20123;-41
2022/03/27 02:49:16;;;;;;;8.15;6.30;;;;;;;18.55;37.95;101693.75;5069172;28;20035;-44
2022/03/27 02:51:45;;;;;;;6.93;6.03;;;;;;;18.55;37.86;101694.59;5069199;28;20090;-41
2022/03/27 02:54:11;;;;;;;7.38;5.90;;;;;;;18.56;37.89;101698.88;5069102;28;20445;-44
2022/03/27 02:56:37;;;;;;;7.05;6.30;;;;;;;18.57;37.85;101703.16;5087536;28;20032;-41
2022/03/27 02:59:03;;;;;;;5.40;4.88;;;;;;;18.58;37.75;101701.34;5087653;28;20115;-42
2022/03/27 03:01:28;;;;;;;6.53;5.70;;;;;;;18.59;37.77;101697.72;5087300;28;20020;-41
2022/03/27 03:03:55;;;;;;;9.95;6.18;;;;;;;18.60;37.69;101701.19;5087442;28;20028;-43
2022/03/27 03:06:24;;;;;;;8.55;6.43;;;;;;;18.60;37.75;101702.03;5087510;28;20146;-41
2022/03/27 03:08:50;;;;;;;7.05;6.03;;;;;;;18.60;37.62;101704.69;5068830;28;20024;-41
2022/03/27 03:11:15;;;;;;;6.50;5.82;;;;;;;18.60;37.65;101694.13;5087059;28;20086;-42
2022/03/27 03:13:41;;;;;;;6.72;5.88;;;;;;;18.61;37.71;101694.94;5105291;28;20193;-41
2022/03/27 03:16:08;;;;;;;7.72;6.55;;;;;;;18.61;37.63;101692.31;5107841;28;20028;-41
2022/03/27 03:18:34;;;;;;;7.03;6.32;;;;;;;18.61;37.62;101701.06;5107772;28;20054;-41
2022/03/27 03:21:01;;;;;;;8.50;6.40;;;;;;;18.60;37.66;101695.91;5088936;28;20046;-41
2022/03/27 03:23:26;;;;;;;7.90;6.13;;;;;;;18.59;37.67;101692.44;5107438;28;20105;-43
2022/03/27 03:25:52;;;;;;;7.90;5.50;;;;;;;18.59;37.79;101700.34;5089239;28;20066;-42
2022/03/27 03:28:17;;;;;;;8.77;6.75;;;;;;;18.58;37.65;101694.25;5089052;28;20115;-44
2022/03/27 03:30:42;;;;;;;6.88;6.15;;;;;;;18.58;37.85;101701.34;5107509;28;20027;-41
2022/03/27 03:33:08;;;;;;;7.20;5.95;;;;;;;18.57;37.75;101700.53;5107302;28;20500;-42
2022/03/27 03:35:34;;;;;;;7.80;6.53;;;;;;;18.56;37.76;101704.16;5107714;28;20032;-41
2022/03/27 03:37:59;;;;;;;7.32;5.95;;;;;;;18.57;37.87;101702.34;5107102;28;20064;-43
2022/03/27 03:40:25;;;;;;;6.43;5.43;;;;;;;18.57;37.82;101703.16;5107094;28;20077;-42
2022/03/27 03:42:52;;;;;;;6.63;5.63;;;;;;;18.56;37.84;101705.97;5107120;28;20348;-42
2022/03/27 03:45:18;;;;;;;6.55;5.53;;;;;;;18.56;37.89;101708.63;5107297;28;20067;-42
2022/03/27 03:47:44;;;;;;;10.02;6.80;;;;;;;18.56;37.80;101706.78;5107584;28;20028;-41
2022/03/27 03:50:10;;;;;;;6.63;6.03;;;;;;;18.56;37.84;101705.97;5107042;28;20031;-43
2022/03/27 03:52:35;;;;;;;6.95;6.13;;;;;;;18.55;37.81;101705.16;5088215;28;20031;-41
2022/03/27 03:55:01;;;;;;;7.90;6.60;;;;;;;18.56;37.95;101700.69;5106981;28;20394;-42
2022/03/27 03:57:27;;;;;;;6.90;5.60;;;;;;;18.55;37.86;101705.16;5107203;28;20039;-41
2022/03/27 03:59:52;;;;;;;7.47;6.22;;;;;;;18.55;37.86;101710.44;5106920;28;20043;-42
2022/03/27 04:02:19;;;;;;;9.88;6.70;;;;;;;18.55;37.69;101714.88;5107355;28;20028;-41
2022/03/27 04:04:45;;;;;;;7.55;6.18;;;;;;;18.55;37.82;101709.59;5088639;28;20032;-42
2022/03/27 04:07:10;;;;;;;7.20;5.97;;;;;;;18.56;37.77;101713.88;5106718;28;20027;-42
2022/03/27 04:09:36;;;;;;;7.68;6.32;;;;;;;18.55;37.74;101704.31;5106939;28;20026;-41
2022/03/27 04:12:02;;;;;;;7.00;6.15;;;;;;;18.55;37.90;101710.44;5106629;28;20146;-42
2022/03/27 04:14:29;;;;;;;7.70;6.18;;;;;;;18.55;37.77;101706.97;5107058;28;20309;-44
2022/03/27 04:16:56;;;;;;;6.10;5.50;;;;;;;18.54;37.80;101703.50;5088464;28;20084;-41
2022/03/27 04:19:22;;;;;;;6.70;5.78;;;;;;;18.54;37.71;101710.59;5106998;28;20031;-40
2022/03/27 04:21:47;;;;;;;7.43;5.90;;;;;;;18.53;38.00;101711.56;5088325;28;20032;-41
2022/03/27 04:24:13;;;;;;;7.45;5.97;;;;;;;18.53;37.90;101707.13;5088378;28;20395;-43
2022/03/27 04:26:41;;;;;;;7.72;5.90;;;;;;;18.53;37.85;101704.50;5088358;28;20040;-41
2022/03/27 04:29:08;;;;;;;8.07;5.88;;;;;;;18.52;37.80;101713.41;5107121;28;20020;-40
2022/03/27 04:31:33;;;;;;;6.45;5.75;;;;;;;18.53;37.92;101714.22;5106827;28;20036;-41
2022/03/27 04:33:59;;;;;;;8.27;6.65;;;;;;;18.52;38.00;101715.22;5106883;28;20092;-41
2022/03/27 04:36:25;;;;;;;6.40;5.72;;;;;;;18.51;38.02;101716.19;5106805;28;20084;-43
2022/03/27 04:38:51;;;;;;;7.75;6.13;;;;;;;18.51;37.97;101718.84;5106863;28;20038;-42
2022/03/27 04:41:16;;;;;;;9.15;6.80;;;;;;;18.51;38.06;101717.03;5106616;28;20062;-43
2022/03/27 04:43:46;;;;;;;7.57;6.18;;;;;;;18.51;38.17;101724.13;5106687;28;20084;-40
2022/03/27 04:46:12;;;;;;;7.45;6.43;;;;;;;18.50;38.19;101717.19;5106540;28;20119;-42
2022/03/27 04:48:38;;;;;;;6.78;6.07;;;;;;;18.50;38.12;101717.19;5106692;28;20460;-43
2022/03/27 04:51:03;;;;;;;7.38;6.25;;;;;;;18.50;38.15;101722.47;5088243;28;20105;-42
2022/03/27 04:53:29;;;;;;;6.72;6.03;;;;;;;18.48;38.12;101719.16;5088337;28;20093;-41
2022/03/27 04:55:54;;;;;;;8.10;5.88;;;;;;;18.48;38.13;101725.28;5106790;28;20433;-41
2022/03/27 04:58:20;;;;;;;7.18;5.97;;;;;;;18.48;38.08;101727.09;5106535;28;20438;-42
2022/03/27 05:00:45;;;;;;;9.57;5.95;;;;;;;18.48;38.05;101719.16;5106903;28;20034;-42
2022/03/27 05:03:11;;;;;;;8.70;6.22;;;;;;;18.48;37.96;101720.00;5106612;28;20380;-41
2022/03/27 05:05:37;;;;;;;9.55;6.43;;;;;;;18.48;37.86;101724.44;5089965;28;20019;-44
2022/03/27 05:08:03;;;;;;;7.22;6.53;;;;;;;18.49;37.80;101723.47;5110489;28;20028;-42
2022/03/27 05:10:28;;;;;;;6.82;6.03;;;;;;;18.49;37.81;101732.19;5110211;28;20034;-42
2022/03/27 05:12:54;;;;;;;7.20;6.50;;;;;;;18.49;37.65;101731.38;5110162;28;20056;-43
2022/03/27 05:15:19;;;;;;;9.20;6.40;;;;;;;18.50;37.61;101735.66;5110488;28;20051;-42
2022/03/27 05:17:51;;;;;;;7.75;6.55;;;;;;;18.49;37.45;101737.47;5110030;28;20038;-42
2022/03/27 05:20:17;;;;;;;7.95;6.50;;;;;;;18.50;37.45;101749.69;5091821;28;20394;-41
2022/03/27 05:22:43;;;;;;;7.25;6.53;;;;;;;18.52;37.37;101746.88;5110097;28;20141;-41
2022/03/27 05:25:14;;;;;;;8.05;6.05;;;;;;;18.52;37.32;101747.69;5110027;28;20087;-42
2022/03/27 05:27:50;;;;;;;10.68;6.30;;;;;;;18.53;37.26;101745.88;5091457;28;20035;-42
2022/03/27 05:30:18;;;;;;;8.85;6.88;;;;;;;18.53;37.16;101749.34;5109962;28;20036;-40
2022/03/27 05:32:45;;;;;;;10.55;6.63;;;;;;;18.54;37.16;101744.91;5109747;28;20024;-41
2022/03/27 05:35:10;;;;;;;6.80;6.05;;;;;;;18.54;37.26;101752.81;5109690;28;20030;-42
2022/03/27 05:37:38;;;;;;;7.53;6.43;;;;;;;18.56;37.32;101750.84;5108023;28;20028;-43
2022/03/27 05:40:06;;;;;;;8.52;6.53;;;;;;;18.55;37.15;101751.81;5107632;28;20031;-42
2022/03/27 05:42:31;;;;;;;8.38;6.95;;;;;;;18.55;37.18;101752.66;5109774;28;20379;-41
2022/03/27 05:44:57;;;;;;;7.78;6.47;;;;;;;18.55;37.21;101757.09;5104795;28;20024;-42
2022/03/27 05:47:22;;;;;;;8.32;6.55;;;;;;;18.53;37.24;101748.53;5107997;28;20382;-40
2022/03/27 05:49:48;;;;;;;8.23;6.70;;;;;;;18.53;37.39;101752.00;5107351;28;20478;-41
2022/03/27 05:52:16;;;;;;;6.97;6.15;;;;;;;18.52;37.35;101750.34;5107170;28;20502;-42
2022/03/27 05:54:42;;;;;;;8.35;6.82;;;;;;;18.52;37.42;101749.50;5091008;28;20050;-41
2022/03/27 05:57:08;;;;;;;7.70;6.82;;;;;;;18.51;37.37;101751.34;5087525;28;20469;-41
2022/03/27 05:59:33;;;;;;;8.00;5.60;;;;;;;18.52;37.33;101754.78;5107294;28;20058;-42
2022/03/27 06:01:59;;;;;;;7.47;6.53;;;;;;;18.51;37.53;101753.16;5103013;28;20063;-43
2022/03/27 06:04:24;;;;;;;7.72;6.53;;;;;;;18.49;37.68;101752.47;5103597;28;20019;-41
2022/03/27 06:06:50;;;;;;;6.95;5.85;;;;;;;18.48;37.70;101751.66;5098363;28;20036;-41
2022/03/27 06:09:15;;;;;;;8.50;7.20;;;;;;;18.49;37.84;101755.13;5088639;28;20043;-42
2022/03/27 06:11:40;;;;;;;7.80;6.13;;;;;;;18.50;37.84;101754.13;5104695;28;20038;-41
2022/03/27 06:14:06;;;;;;;10.10;6.45;;;;;;;18.50;37.81;101759.41;5099419;28;20032;-41
2022/03/27 06:16:31;;;;;;;8.82;6.80;;;;;;;18.49;37.67;101758.59;5089247;28;20040;-41
2022/03/27 06:18:57;;;;;;;8.95;6.63;;;;;;;18.50;37.67;101762.88;5108593;28;20031;-41
2022/03/27 06:21:23;;;;;;;7.82;6.53;;;;;;;18.49;37.53;101757.75;5108911;28;20105;-41
2022/03/27 06:23:48;;;;;;;9.52;7.45;;;;;;;18.50;37.58;101764.69;5092737;28;20039;-41
2022/03/27 06:26:13;;;;;;;7.95;6.50;;;;;;;18.50;37.60;101764.69;5088560;28;20032;-42
2022/03/27 06:28:39;;;;;;;7.65;6.22;;;;;;;18.50;37.53;101764.69;5088243;28;20559;-43
2022/03/27 06:31:04;;;;;;;8.40;6.80;;;;;;;18.50;37.61;101770.78;5089074;28;20036;-41
2022/03/27 06:33:30;;;;;;;7.13;6.05;;;;;;;18.50;37.67;101767.34;5087916;28;20090;-41
2022/03/27 06:35:55;;;;;;;7.68;6.68;;;;;;;18.49;37.69;101769.16;5105115;28;20027;-41
2022/03/27 06:38:21;;;;;;;5.97;5.32;;;;;;;18.49;37.85;101774.41;5108463;28;20126;-40
2022/03/27 06:40:47;;;;;;;8.02;6.13;;;;;;;18.49;37.68;101773.59;5101109;28;20034;-41
2022/03/27 06:43:13;;;;;;;7.53;6.00;;;;;;;18.49;37.70;101778.88;5101635;28;20039;-41
2022/03/27 06:45:39;;;;;;;7.05;6.35;;;;;;;18.49;37.80;101776.25;5100739;28;20101;-42
2022/03/27 06:48:05;;;;;;;6.85;5.93;;;;;;;18.49;37.79;101777.06;5105972;28;20031;-42
2022/03/27 06:50:32;;;;;;;7.72;5.55;;;;;;;18.48;37.88;101777.22;5107039;28;20399;-43
2022/03/27 06:52:57;;;;;;;7.65;6.22;;;;;;;18.48;37.88;101783.31;5108337;28;20020;-43
2022/03/27 06:55:23;;;;;;;7.90;6.43;;;;;;;18.47;37.84;101781.69;5107045;28;20024;-40
2022/03/27 06:57:49;;;;;;;8.40;6.47;;;;;;;18.48;37.84;101785.13;5088474;28;20024;-41
2022/03/27 07:03:09;;;;;;;8.52;5.75;;;;;;;18.45;37.88;101778.38;5106867;28;20109;-41
2022/03/27 07:05:38;;;;;;;6.80;5.47;;;;;;;18.45;37.94;101772.28;5104657;28;20031;-41
2022/03/27 07:08:08;;;;;;;9.25;6.63;;;;;;;18.45;38.01;101781.00;5092346;28;20540;-42
2022/03/27 07:10:36;;;;;;;6.75;5.95;;;;;;;18.45;38.07;101777.56;5104308;28;20457;-42
2022/03/27 07:13:03;;;;;;;9.40;6.78;;;;;;;18.44;38.04;101775.91;5102287;28;20036;-42
2022/03/27 07:15:28;;;;;;;8.73;6.53;;;;;;;18.44;38.09;101776.72;5105494;28;20032;-42
2022/03/27 07:17:54;;;;;;;10.13;6.70;;;;;;;18.44;38.25;101774.09;5100947;28;20035;-42
2022/03/27 07:20:25;;;;;;;12.20;6.75;;;;;;;18.43;38.34;101779.56;5101080;28;20470;-40
2022/03/27 07:22:52;;;;;;;16.30;7.25;;;;;;;18.43;38.39;101780.34;5090331;28;20084;-44
2022/03/27 07:25:19;;;;;;;10.25;6.40;;;;;;;18.44;38.42;101779.38;5104518;28;20027;-45
2022/03/27 07:27:45;;;;;;;11.07;6.30;;;;;;;18.45;38.31;101788.09;5092872;28;20043;-41
2022/03/27 07:30:11;;;;;;;9.38;6.20;;;;;;;18.45;38.32;101785.47;5093011;28;20395;-42
2022/03/27 07:32:39;;;;;;;8.13;5.97;;;;;;;18.45;38.32;101781.00;5087580;28;20032;-44
2022/03/27 07:35:06;;;;;;;9.10;6.53;;;;;;;18.46;38.28;101785.31;5075458;28;20054;-43
2022/03/27 07:37:34;;;;;;;9.80;6.88;;;;;;;18.46;38.31;101781.84;5086613;28;20171;-41
2022/03/27 07:40:03;;;;;;;10.60;6.53;;;;;;;18.47;38.17;101783.50;5093576;28;20059;-43
2022/03/27 07:42:30;;;;;;;12.93;7.28;;;;;;;18.48;38.25;101779.88;5101023;28;20211;-42
2022/03/27 07:44:55;;;;;;;7.63;5.93;;;;;;;18.48;38.20;101782.50;5075869;28;20151;-41
2022/03/27 07:47:22;;;;;;;8.88;5.90;;;;;;;18.50;38.36;101783.16;5086587;28;20048;-42
2022/03/27 07:49:48;;;;;;;10.98;6.53;;;;;;;18.49;38.16;101784.97;5094848;28;20024;-40
2022/03/27 07:52:13;;;;;;;8.65;6.22;;;;;;;18.49;38.36;101789.44;5100288;28;20023;-43
2022/03/27 07:54:39;;;;;;;8.60;6.95;;;;;;;18.50;38.32;101777.88;5100551;28;20066;-43
2022/03/27 07:57:05;;;;;;;12.00;7.10;;;;;;;18.51;38.22;101787.44;5105410;28;20386;-41
2022/03/27 07:59:30;;;;;;;9.15;5.93;;;;;;;18.50;38.61;101784.00;5088068;22;20354;-43
2022/03/27 08:01:55;;;;;;;11.82;6.75;;;;;;;18.52;39.12;101778.53;5082990;28;20034;-41
2022/03/27 08:04:21;;;;;;;10.00;7.20;;;;;;;18.56;39.97;101780.69;5088496;28;20116;-46
2022/03/27 08:06:47;;;;;;;17.48;7.65;;;;;;;18.61;41.24;101774.13;5105892;28;20039;-41
2022/03/27 08:09:14;;;;;;;12.85;8.43;;;;;;;18.70;41.92;101773.97;5105355;28;20035;-40
2022/03/27 08:11:41;;;;;;;13.90;8.88;;;;;;;18.73;41.82;101768.34;5103070;28;20371;-42
2022/03/27 08:14:08;;;;;;;18.88;8.40;;;;;;;18.70;41.84;101775.78;5080985;28;20043;-42
2022/03/27 08:16:34;;;;;;;12.30;7.38;;;;;;;18.67;41.38;101773.47;5087130;28;20032;-41
2022/03/27 08:19:00;;;;;;;13.68;9.73;;;;;;;18.63;41.28;101774.78;5088902;28;20047;-41
2022/03/27 08:21:25;;;;;;;14.68;8.27;;;;;;;18.63;41.32;101765.06;5086374;28;20028;-42
2022/03/27 08:23:51;;;;;;;16.30;7.93;;;;;;;18.62;40.93;101768.69;5102319;28;20093;-45
2022/03/27 08:29:03;;;;;;;12.98;7.22;;;;;;;18.61;41.36;101767.03;5094853;28;20067;-44
2022/03/27 08:31:29;;;;;;;11.50;7.40;;;;;;;18.63;41.47;101766.88;5074189;28;20111;-47
2022/03/27 08:33:55;;;;;;;12.20;7.55;;;;;;;18.63;41.40;101767.69;5087513;28;20074;-47
2022/03/27 08:36:21;;;;;;;16.33;6.65;;;;;;;18.64;41.23;101769.34;5074375;28;20023;-45
2022/03/27 08:38:46;;;;;;;15.02;6.88;;;;;;;18.65;41.34;101764.88;5101496;28;20019;-44
2022/03/27 08:41:15;;;;;;;8.90;7.13;;;;;;;18.65;41.26;101770.16;5110549;28;20030;-44
2022/03/27 08:43:43;;;;;;;10.68;6.75;;;;;;;18.64;41.23;101772.00;5109760;28;20027;-44
2022/03/27 08:46:09;;;;;;;11.10;7.03;;;;;;;18.64;41.42;101779.09;5107792;28;20035;-44
2022/03/27 08:48:37;;;;;;;9.40;6.28;;;;;;;18.63;41.63;101774.78;5107362;28;20443;-47
2022/03/27 08:51:25;;;;;;;10.50;7.28;;;;;;;18.63;41.39;101775.63;5103415;28;20032;-43
2022/03/27 08:53:58;;;;;;;8.90;6.68;;;;;;;18.61;41.38;101774.94;5102750;28;20092;-47
2022/03/27 08:56:24;;;;;;;11.48;7.18;;;;;;;18.62;41.00;101775.78;5103688;28;20055;-43
2022/03/27 08:58:53;;;;;;;14.80;8.18;;;;;;;18.62;41.03;101779.25;5085674;28;20051;-45
2022/03/27 09:01:19;;;;;;;21.38;7.95;;;;;;;18.60;41.03;101775.94;5079549;28;20043;-45
2022/03/27 09:03:45;;;;;;;13.75;8.00;;;;;;;18.60;41.28;101775.94;5104581;28;20092;-42
2022/03/27 09:06:11;;;;;;;11.35;6.25;;;;;;;18.60;42.05;101775.09;5105026;28;21476;-44
2022/03/27 09:08:37;;;;;;;14.60;7.43;;;;;;;18.62;44.00;101775.78;5106067;28;20024;-43
2022/03/27 09:11:03;;;;;;;14.73;7.43;;;;;;;18.61;44.94;101767.03;5100426;28;20668;-45
2022/03/27 09:13:30;;;;;;;12.73;7.15;;;;;;;18.63;45.37;101766.88;5109836;28;20034;-45
2022/03/27 09:16:03;;;;;;;14.38;6.85;;;;;;;18.60;44.50;101775.09;5084404;28;20032;-45
2022/03/27 09:18:50;;;;;;;13.85;6.88;;;;;;;18.57;42.89;101768.31;5100387;28;20115;-55
2022/03/27 09:21:17;;;;;;;12.98;6.25;;;;;;;18.58;42.45;101767.34;5099980;27;20108;-47
2022/03/27 09:23:43;;;;;;;8.82;6.85;;;;;;;18.56;41.87;101772.78;5083557;28;20032;-42
2022/03/27 09:26:16;;;;;;;9.90;6.53;;;;;;;18.55;41.46;101765.84;5105570;28;20038;-42
2022/03/27 09:28:47;;;;;;;10.88;7.63;;;;;;;18.54;41.22;101760.72;5084257;28;20046;-45
2022/03/27 09:31:18;;;;;;;10.82;8.40;;;;;;;18.55;40.62;101757.94;5101420;28;20047;-44
2022/03/27 09:33:51;;;;;;;11.77;7.15;;;;;;;18.55;40.09;101762.38;5083700;28;20131;-46
2022/03/27 09:36:19;;;;;;;15.02;9.07;;;;;;;18.54;39.46;101755.47;5105062;28;20077;-42
2022/03/27 09:39:15;;;;;;;13.13;8.55;;;;;;;18.51;37.46;101755.78;5107216;28;20083;-43
2022/03/27 09:41:43;;;;;;;14.15;9.32;;;;;;;18.52;38.02;101750.34;5085317;28;20081;-43
2022/03/27 09:44:14;;;;;;;13.65;9.23;;;;;;;18.53;37.09;101753.81;5103800;28;20081;-42
2022/03/27 09:47:07;;;;;;;10.27;8.80;;;;;;;18.53;36.95;101748.53;5098638;28;20139;-44
2022/03/27 09:49:34;;;;;;;11.93;9.88;;;;;;;18.54;36.17;101751.00;5101706;28;20032;-43
2022/03/27 09:52:11;;;;;;;13.10;10.50;;;;;;;18.56;36.02;101746.38;5100377;28;20466;-42
2022/03/27 09:55:06;;;;;;;13.30;11.13;;;;;;;18.53;35.83;101736.16;5080850;28;20045;-44
2022/03/27 09:57:36;;;;;;;12.55;10.05;;;;;;;18.56;35.78;101735.81;5098624;27;20048;-42
2022/03/27 10:00:15;;;;;;;16.92;10.77;;;;;;;18.55;35.66;101733.34;5095013;28;20059;-44
2022/03/27 10:02:43;;;;;;;16.40;11.25;;;;;;;18.58;35.60;101730.38;5108470;28;20036;-45
2022/03/27 10:05:11;;;;;;;11.43;9.60;;;;;;;18.59;35.91;101734.66;5104348;28;20028;-42
2022/03/27 10:07:45;;;;;;;15.85;11.52;;;;;;;18.59;36.08;101726.75;5105724;28;20031;-43
2022/03/27 10:10:15;;;;;;;15.00;9.65;;;;;;;18.60;36.06;101732.84;5103999;27;20510;-43
2022/03/27 10:12:43;;;;;;;14.20;9.40;;;;;;;18.63;35.97;101725.47;5105455;28;20386;-43
2022/03/27 10:15:14;;;;;;;10.35;9.25;;;;;;;18.62;36.13;101726.47;5106544;28;20114;-46
2022/03/27 10:17:45;;;;;;;13.10;10.13;;;;;;;18.63;35.60;101722.00;5104345;28;20024;-45
2022/03/27 10:20:15;;;;;;;10.35;9.20;;;;;;;18.63;35.31;101719.34;5107429;28;20449;-46
2022/03/27 10:22:44;;;;;;;14.30;9.90;;;;;;;18.62;34.89;101726.47;5108187;28;20027;-43
2022/03/27 10:25:12;;;;;;;18.08;11.32;;;;;;;18.63;34.66;101717.53;5107705;28;20039;-43
2022/03/27 10:27:40;;;;;;;12.93;10.00;;;;;;;18.64;34.58;101713.09;5108761;28;20031;-42
2022/03/27 10:30:08;;;;;;;12.95;9.88;;;;;;;18.65;34.34;101718.19;5105863;28;20844;-44
2022/03/27 10:32:35;;;;;;;12.90;9.90;;;;;;;18.63;34.13;101712.28;5102330;28;20437;-45
2022/03/27 10:35:26;;;;;;;11.60;9.02;;;;;;;18.61;33.46;101713.44;5107161;28;20031;-48
2022/03/27 10:38:19;;;;;;;12.07;9.35;;;;;;;18.57;33.05;101711.09;5105576;28;20043;-44
2022/03/27 10:41:12;;;;;;;10.88;8.40;;;;;;;18.56;32.61;101711.25;5107319;27;20066;-42
2022/03/27 10:44:16;;;;;;;11.98;9.70;;;;;;;18.58;32.26;101704.00;5113688;27;20589;-43
2022/03/27 10:46:46;;;;;;;15.43;9.95;;;;;;;18.58;31.98;101704.00;5062745;28;20184;-43
2022/03/27 10:51:47;;;;;;;15.00;11.32;;;;;;;18.57;31.69;101692.59;5591332;22;20055;-71
2022/03/27 10:54:20;;;;;;;17.35;11.23;;;;;;;18.58;30.98;101693.44;5127632;27;20023;-72
2022/03/27 10:56:48;;;;;;;13.65;10.95;;;;;;;18.61;30.41;101697.59;5121357;27;20524;-72
2022/03/27 10:59:20;;;;;;;14.23;12.15;;;;;;;18.61;30.17;101693.13;5122484;27;20056;-72
2022/03/27 11:01:47;;;;;;;12.43;10.38;;;;;;;18.62;30.12;101684.22;5123053;27;20027;-72
2022/03/27 11:04:15;;;;;;;15.10;11.68;;;;;;;18.64;29.77;101682.25;5123988;27;20035;-71
2022/03/27 11:06:46;;;;;;;14.82;11.82;;;;;;;18.65;29.76;101683.88;5113701;27;20086;-73
2022/03/27 11:09:31;;;;;;;11.45;10.27;;;;;;;18.66;29.22;101679.44;5121653;27;20068;-73
2022/03/27 11:11:57;;;;;;;19.85;11.68;;;;;;;18.69;29.48;101679.94;5123867;27;20466;-72
2022/03/27 11:15:02;;;;;;;16.00;11.35;;;;;;;18.66;28.99;101672.34;5127246;27;20035;-72
2022/03/27 11:17:45;;;;;;;16.15;11.52;;;;;;;18.65;28.89;101678.59;5125071;27;20096;-72
2022/03/27 11:20:26;;;;;;;15.00;10.95;;;;;;;18.64;29.02;101671.69;5121444;27;20045;-72
2022/03/27 11:22:56;;;;;;;14.48;11.25;;;;;;;18.65;29.11;101672.50;5127022;27;20110;-72
2022/03/27 11:25:25;;;;;;;13.45;10.10;;;;;;;18.64;29.29;101668.22;5127344;27;20030;-72
2022/03/27 11:28:05;;;;;;;15.68;11.15;;;;;;;18.61;29.05;101672.03;5122937;27;20413;-72
2022/03/27 11:30:31;;;;;;;12.63;10.75;;;;;;;18.64;29.03;101668.22;5129269;27;20038;-73
2022/03/27 11:33:15;;;;;;;12.43;11.02;;;;;;;18.61;28.66;101661.47;5123504;27;20031;-72
2022/03/27 11:35:43;;;;;;;13.13;10.07;;;;;;;18.63;29.44;101659.47;5124592;27;20031;-70
2022/03/27 11:38:20;;;;;;;13.73;10.10;;;;;;;18.63;28.98;101656.84;5124837;27;20031;-73